Time;durP1;ratioP1;P1;durP2;ratioP2;P2;SDS_P1;SDS_P2;PMS_P1;PMS_P2;Temp;Humidity;BMP_temperature;BMP_pressure;BME280_temperature;BME280_humidity;BME280_pressure;Samples;Min_cycle;Max_cycle;Signal;HPM_P1;HPM_P2
2022/03/21 00:01:10;;;;;;;61.53;32.42;;;2.60;99.90;;;;;;5152810;27;20051;-80
2022/03/21 00:03:36;;;;;;;59.05;32.63;;;3.90;99.90;;;;;;5154409;27;20035;-80
2022/03/21 00:06:01;;;;;;;;;;;2.40;99.90;;;;;;5153944;27;20091;-80
2022/03/21 00:08:28;;;;;;;59.17;33.17;;;2.50;99.90;;;;;;5154153;27;20369;-79
2022/03/21 00:10:55;;;;;;;58.47;32.67;;;2.40;99.90;;;;;;5154137;27;20474;-80
2022/03/21 00:13:21;;;;;;;62.10;31.23;;;2.30;99.90;;;;;;5153620;27;20078;-80
2022/03/21 00:15:52;;;;;;;61.30;32.88;;;2.70;99.90;;;;;;5116443;27;20043;-79
2022/03/21 00:18:18;;;;;;;58.78;33.08;;;2.20;99.90;;;;;;5134325;27;20043;-79
2022/03/21 00:20:49;;;;;;;57.30;32.95;;;2.20;99.90;;;;;;5133121;27;20363;-79
2022/03/21 00:23:15;;;;;;;58.83;32.63;;;2.20;99.90;;;;;;5133137;27;20099;-80
2022/03/21 00:25:41;;;;;;;57.83;31.85;;;2.20;99.90;;;;;;5133418;28;20502;-79
2022/03/21 00:28:08;;;;;;;;;;;2.20;99.90;;;;;;5133187;28;20039;-80
2022/03/21 00:30:38;;;;;;;64.25;33.75;;;2.20;99.90;;;;;;5134417;27;19919;-79
2022/03/21 00:33:04;;;;;;;57.35;31.92;;;2.20;99.90;;;;;;5133056;28;20058;-80
2022/03/21 00:35:29;;;;;;;;;;;2.20;99.90;;;;;;5133276;28;20409;-80
2022/03/21 00:37:56;;;;;;;64.38;32.95;;;2.30;99.90;;;;;;5133576;28;19958;-80
2022/03/21 00:40:22;;;;;;;56.75;30.80;;;2.20;99.90;;;;;;5133193;28;20122;-80
2022/03/21 00:42:50;;;;;;;61.53;34.42;;;2.10;99.90;;;;;;5114660;28;20456;-80
2022/03/21 00:45:18;;;;;;;59.30;33.17;;;3.60;99.90;;;;;;5144516;27;20045;-80
2022/03/21 00:47:46;;;;;;;58.35;33.58;;;2.20;99.90;;;;;;5154004;27;20043;-80
2022/03/21 00:50:17;;;;;;;59.15;32.28;;;2.20;99.90;;;;;;5153276;27;20046;-80
2022/03/21 00:52:45;;;;;;;60.75;33.75;;;2.20;99.90;;;;;;5135653;27;20051;-79
2022/03/21 00:55:13;;;;;;;63.83;33.88;;;2.20;99.90;;;;;;5153110;27;20042;-79
2022/03/21 00:57:45;;;;;;;60.80;32.92;;;2.20;99.90;;;;;;5153926;27;20046;-79
2022/03/21 01:00:17;;;;;;;63.85;33.50;;;2.10;99.90;;;;;;5151750;27;20110;-79
2022/03/21 01:02:43;;;;;;;66.53;35.25;;;2.20;99.90;;;;;;5153044;27;20046;-79
2022/03/21 01:05:12;;;;;;;61.50;33.10;;;2.20;99.90;;;;;;5154308;27;20488;-79
2022/03/21 01:07:38;;;;;;;;;;;2.20;99.90;;;;;;5158444;27;20054;-79
2022/03/21 01:10:09;;;;;;;57.05;31.80;;;2.10;99.90;;;;;;5157382;27;20013;-79
2022/03/21 01:12:35;;;;;;;61.42;33.30;;;2.20;99.90;;;;;;5157615;27;20172;-79
2022/03/21 01:15:00;;;;;;;;;;;2.00;99.90;;;;;;5146133;27;20126;-79
2022/03/21 01:17:27;;;;;;;58.90;33.55;;;2.10;99.90;;;;;;5136166;27;19920;-79
2022/03/21 01:19:53;;;;;;;59.53;31.88;;;2.00;99.90;;;;;;5137071;27;20093;-79
2022/03/21 01:22:19;;;;;;;;;;;2.00;99.90;;;;;;5137043;27;20043;-78
2022/03/21 01:24:44;;;;;;;62.53;32.85;;;2.00;99.90;;;;;;5136121;27;20417;-79
2022/03/21 01:27:10;;;;;;;;;;;2.00;99.90;;;;;;5136753;27;20516;-79
2022/03/21 01:29:36;;;;;;;61.30;32.65;;;2.00;99.90;;;;;;5137565;27;19927;-79
2022/03/21 01:32:02;;;;;;;55.40;31.90;;;1.90;99.90;;;;;;5136350;27;20097;-79
2022/03/21 01:34:28;;;;;;;59.70;32.40;;;1.90;99.90;;;;;;5117759;27;20042;-79
2022/03/21 01:36:53;;;;;;;;;;;1.90;99.90;;;;;;5136956;27;20543;-79
2022/03/21 01:39:19;;;;;;;60.42;31.45;;;1.80;99.90;;;;;;5135745;27;20294;-79
2022/03/21 01:41:45;;;;;;;;;;;1.80;99.90;;;;;;5136998;27;20099;-79
2022/03/21 01:44:11;;;;;;;59.38;33.47;;;1.90;99.90;;;;;;5139448;27;19920;-79
2022/03/21 01:46:37;;;;;;;;;;;2.40;99.90;;;;;;5157706;27;20050;-79
2022/03/21 01:49:05;;;;;;;55.50;30.30;;;1.90;99.90;;;;;;5157048;27;20366;-79
2022/03/21 01:51:31;;;;;;;59.88;33.72;;;1.70;99.90;;;;;;5156274;27;20051;-79
2022/03/21 01:56:43;;;;;;;60.08;32.25;;;1.70;99.90;;;;;;5156430;27;19919;-78
2022/03/21 01:59:10;;;;;;;59.85;33.75;;;1.60;99.90;;;;;;5154365;27;20065;-80
2022/03/21 02:01:36;;;;;;;59.97;32.53;;;1.60;99.90;;;;;;5138067;27;20449;-80
2022/03/21 02:04:02;;;;;;;61.03;33.75;;;1.60;99.90;;;;;;5156828;27;20042;-80
2022/03/21 02:06:28;;;;;;;;;;;1.60;99.90;;;;;;5156123;27;20362;-80
2022/03/21 02:08:58;;;;;;;58.80;33.22;;;3.20;99.90;;;;;;5156650;27;19977;-80
2022/03/21 02:11:26;;;;;;;60.78;33.50;;;1.50;99.90;;;;;;5156075;27;20489;-80
2022/03/21 02:13:56;;;;;;;62.03;33.85;;;1.60;99.90;;;;;;5155028;27;20034;-79
2022/03/21 02:16:23;;;;;;;61.60;33.20;;;1.50;99.90;;;;;;5135005;27;20047;-78
2022/03/21 02:18:49;;;;;;;62.10;34.17;;;1.50;99.90;;;;;;5135615;27;20043;-79
2022/03/21 02:21:24;;;;;;;59.28;34.08;;;1.60;99.90;;;;;;5134753;27;20439;-79
2022/03/21 02:23:58;;;;;;;63.95;33.65;;;1.60;99.90;;;;;;5135431;27;20440;-79
2022/03/21 02:26:25;;;;;;;61.00;32.75;;;1.60;99.90;;;;;;5134657;27;20088;-79
2022/03/21 02:28:51;;;;;;;65.78;34.00;;;1.50;99.90;;;;;;5135462;27;20055;-80
2022/03/21 02:31:16;;;;;;;;;;;1.50;99.90;;;;;;5136314;27;20043;-80
2022/03/21 02:33:42;;;;;;;58.50;31.13;;;1.40;99.90;;;;;;5134974;27;19976;-80
2022/03/21 02:36:09;;;;;;;58.92;31.15;;;2.80;99.90;;;;;;5135020;27;20035;-80
2022/03/21 02:38:36;;;;;;;59.22;32.70;;;1.50;99.90;;;;;;5135632;27;20047;-80
2022/03/21 02:41:02;;;;;;;57.58;32.78;;;1.50;99.90;;;;;;5135099;27;20039;-80
2022/03/21 02:43:27;;;;;;;;;;;1.40;99.90;;;;;;5135340;27;20062;-80
2022/03/21 02:46:03;;;;;;;57.78;32.88;;;1.40;99.90;;;;;;5136276;27;19920;-80
2022/03/21 02:48:29;;;;;;;60.75;31.85;;;1.40;99.90;;;;;;5134400;27;20078;-80
2022/03/21 02:51:02;;;;;;;;;;;1.40;99.90;;;;;;5135525;27;20065;-80
2022/03/21 02:53:32;;;;;;;63.45;33.42;;;1.40;99.90;;;;;;5134809;27;19919;-80
2022/03/21 02:55:58;;;;;;;66.57;34.97;;;1.30;99.90;;;;;;5134637;27;20042;-80
2022/03/21 02:58:24;;;;;;;;;;;1.40;99.90;;;;;;5135181;27;20425;-80
2022/03/21 03:00:50;;;;;;;61.22;33.75;;;1.40;99.90;;;;;;5135923;27;20293;-81
2022/03/21 03:03:15;;;;;;;;;;;1.40;99.90;;;;;;5134432;27;20039;-80
2022/03/21 03:05:41;;;;;;;61.58;33.47;;;1.40;99.90;;;;;;5134995;27;19926;-80
2022/03/21 03:08:07;;;;;;;56.42;32.72;;;2.40;99.90;;;;;;5134466;27;20500;-80
2022/03/21 03:10:32;;;;;;;;;;;1.40;99.90;;;;;;5134738;27;20061;-80
2022/03/21 03:12:58;;;;;;;64.05;33.22;;;1.30;99.90;;;;;;5134506;27;19959;-80
2022/03/21 03:15:23;;;;;;;;;;;1.40;99.90;;;;;;5135892;27;20043;-79
2022/03/21 03:17:49;;;;;;;60.95;33.72;;;1.40;99.90;;;;;;5133648;27;19931;-80
2022/03/21 03:20:15;;;;;;;;;;;1.40;99.90;;;;;;5134706;27;20394;-80
2022/03/21 03:22:41;;;;;;;63.97;33.33;;;1.30;99.90;;;;;;5133890;27;19924;-80
2022/03/21 03:25:07;;;;;;;;;;;1.30;99.90;;;;;;5134703;27;20039;-80
2022/03/21 03:27:32;;;;;;;66.22;34.33;;;1.40;99.90;;;;;;5133833;27;19950;-81
2022/03/21 03:29:59;;;;;;;;;;;3.00;99.90;;;;;;5143109;27;20341;-81
2022/03/21 03:32:25;;;;;;;61.65;32.95;;;3.10;99.90;;;;;;5154734;27;19970;-81
2022/03/21 03:34:51;;;;;;;58.58;31.77;;;1.40;99.90;;;;;;5154965;27;20045;-81
2022/03/21 03:37:16;;;;;;;;;;;1.30;99.90;;;;;;5154535;27;20043;-81
2022/03/21 03:39:43;;;;;;;63.28;34.30;;;1.30;99.90;;;;;;5152963;27;20014;-81
2022/03/21 03:42:08;;;;;;;58.20;30.25;;;1.30;99.90;;;;;;5154430;27;20517;-81
2022/03/21 03:44:34;;;;;;;;;;;1.20;99.90;;;;;;5154448;27;20043;-81
2022/03/21 03:46:59;;;;;;;63.20;33.45;;;1.20;99.90;;;;;;5154686;27;19949;-81
2022/03/21 03:49:26;;;;;;;;;;;1.30;99.90;;;;;;5154644;27;20045;-81
2022/03/21 03:51:52;;;;;;;60.23;32.23;;;1.30;99.90;;;;;;5154430;27;20010;-81
2022/03/21 03:54:18;;;;;;;;;;;1.20;99.90;;;;;;5152959;27;20114;-80
2022/03/21 03:56:44;;;;;;;61.60;32.08;;;1.20;99.90;;;;;;5154038;27;20367;-80
2022/03/21 03:59:10;;;;;;;58.88;33.00;;;1.10;99.90;;;;;;5153545;27;20042;-80
2022/03/21 04:01:37;;;;;;;;;;;1.10;99.90;;;;;;5155081;27;20039;-80
2022/03/21 04:04:03;;;;;;;;;;;1.10;99.90;;;;;;5153217;27;19919;-80
2022/03/21 04:06:29;;;;;;;58.53;31.30;;;1.10;99.90;;;;;;5153966;27;19945;-80
2022/03/21 04:08:54;;;;;;;;;;;1.00;99.90;;;;;;5154620;27;20118;-80
2022/03/21 04:11:20;;;;;;;62.30;32.47;;;2.60;99.90;;;;;;5116746;27;19919;-80
2022/03/21 04:13:47;;;;;;;56.50;32.00;;;0.90;99.90;;;;;;5133049;27;20073;-80
2022/03/21 04:16:14;;;;;;;60.47;33.33;;;0.90;99.90;;;;;;5133335;27;20121;-80
2022/03/21 04:18:40;;;;;;;57.22;32.30;;;0.90;99.90;;;;;;5133581;27;20080;-80
2022/03/21 04:21:05;;;;;;;;;;;0.90;99.90;;;;;;5132994;27;20177;-80
2022/03/21 04:23:31;;;;;;;59.33;31.42;;;0.80;99.90;;;;;;5133736;27;20010;-80
2022/03/21 04:25:57;;;;;;;;;;;0.90;99.90;;;;;;5149457;27;20040;-80
2022/03/21 04:28:22;;;;;;;57.45;31.45;;;0.90;99.90;;;;;;5153656;27;19918;-81
2022/03/21 04:30:48;;;;;;;;;;;0.80;99.90;;;;;;5154184;27;20508;-80
2022/03/21 04:33:14;;;;;;;59.28;31.30;;;0.90;99.90;;;;;;5153391;27;19919;-81
2022/03/21 04:35:40;;;;;;;;;;;0.80;99.90;;;;;;5154534;27;20050;-80
2022/03/21 04:38:13;;;;;;;59.35;31.38;;;0.80;99.90;;;;;;5153890;27;19925;-80
2022/03/21 04:40:50;;;;;;;62.47;33.65;;;0.90;99.90;;;;;;5153490;27;20045;-81
2022/03/21 04:43:18;;;;;;;61.33;31.70;;;0.80;99.90;;;;;;5157986;27;20512;-81
2022/03/21 04:45:46;;;;;;;68.10;32.78;;;0.90;99.90;;;;;;5158200;27;20046;-80
2022/03/21 04:48:13;;;;;;;59.88;32.30;;;0.90;99.90;;;;;;5157706;27;20098;-80
2022/03/21 04:50:38;;;;;;;58.63;32.05;;;1.00;99.90;;;;;;5157978;27;20452;-80
2022/03/21 04:53:04;;;;;;;;;;;1.00;99.90;;;;;;5158215;27;20082;-80
2022/03/21 04:55:32;;;;;;;61.72;32.95;;;1.00;99.90;;;;;;5144555;27;19942;-80
2022/03/21 04:57:58;;;;;;;65.13;32.15;;;1.00;99.90;;;;;;5137175;27;20050;-80
2022/03/21 05:00:24;;;;;;;67.95;33.63;;;1.00;99.90;;;;;;5137013;27;20051;-80
2022/03/21 05:02:49;;;;;;;;;;;0.90;99.90;;;;;;5137391;27;20047;-80
2022/03/21 05:05:15;;;;;;;62.25;33.92;;;0.90;99.90;;;;;;5136765;27;19964;-79
2022/03/21 05:07:49;;;;;;;;;;;2.50;99.90;;;;;;5137522;27;20042;-79
2022/03/21 05:10:15;;;;;;;62.15;33.63;;;0.90;99.90;;;;;;5136903;27;19919;-79
2022/03/21 05:12:40;;;;;;;;;;;0.90;99.90;;;;;;5157050;27;20035;-79
2022/03/21 05:15:07;;;;;;;63.83;32.92;;;0.90;99.90;;;;;;5157523;27;19919;-80
2022/03/21 05:17:34;;;;;;;63.88;33.92;;;0.90;99.90;;;;;;5157327;27;20039;-80
2022/03/21 05:20:01;;;;;;;64.22;34.28;;;0.90;99.90;;;;;;5157651;27;20045;-80
2022/03/21 05:22:27;;;;;;;66.22;34.20;;;0.90;99.90;;;;;;5156606;27;20446;-80
2022/03/21 05:35:55;;;;;;;67.35;35.47;;;1.00;99.90;;;;;;5136300;27;20442;-81
2022/03/21 05:38:26;;;;;;;62.45;33.83;;;1.10;99.90;;;;;;5135622;27;20047;-81
2022/03/21 05:40:56;;;;;;;64.70;32.97;;;1.20;99.90;;;;;;5137670;27;20127;-81
2022/03/21 05:43:22;;;;;;;61.42;32.63;;;1.30;99.90;;;;;;5117173;27;20047;-81
2022/03/21 05:45:55;;;;;;;;;;;1.30;99.90;;;;;;5136533;27;20050;-80
2022/03/21 05:51:05;;;;;;;64.65;34.20;;;1.50;99.90;;;;;;5150668;27;20039;-82
2022/03/21 05:53:32;;;;;;;67.40;35.88;;;1.50;99.90;;;;;;5146751;27;20042;-80
2022/03/21 05:56:00;;;;;;;65.45;33.80;;;1.60;99.90;;;;;;5146569;27;20478;-78
2022/03/21 05:58:26;;;;;;;68.22;34.08;;;1.70;99.90;;;;;;5144610;27;20402;-79
2022/03/21 06:00:52;;;;;;;62.25;33.72;;;1.70;99.90;;;;;;5145284;27;20042;-80
2022/03/21 06:03:17;;;;;;;;;;;1.80;99.90;;;;;;5156050;27;20043;-80
2022/03/21 06:05:44;;;;;;;64.70;34.17;;;1.70;99.90;;;;;;5155641;27;20274;-81
2022/03/21 06:08:10;;;;;;;66.72;34.38;;;1.70;99.90;;;;;;5156049;27;20054;-81
2022/03/21 06:10:38;;;;;;;;;;;1.60;99.90;;;;;;5156649;27;20034;-79
2022/03/21 06:13:05;;;;;;;65.55;34.45;;;1.70;99.90;;;;;;5147682;27;19919;-79
2022/03/21 06:15:37;;;;;;;65.72;34.55;;;1.60;99.90;;;;;;5141201;27;20470;-79
2022/03/21 06:18:09;;;;;;;64.30;33.72;;;1.60;99.90;;;;;;5126763;27;20039;-76
2022/03/21 06:20:36;;;;;;;66.15;35.15;;;1.60;99.90;;;;;;5142069;27;20397;-75
2022/03/21 06:23:02;;;;;;;61.33;33.38;;;1.60;99.90;;;;;;5155784;27;20125;-76
2022/03/21 06:25:27;;;;;;;;;;;1.60;99.90;;;;;;5144958;27;20090;-75
2022/03/21 06:27:53;;;;;;;59.33;32.38;;;1.60;99.90;;;;;;5134758;27;19919;-76
2022/03/21 06:30:18;;;;;;;;;;;1.60;99.90;;;;;;5135070;27;20103;-76
2022/03/21 06:32:44;;;;;;;67.32;34.65;;;1.60;99.90;;;;;;5140536;27;19919;-78
2022/03/21 06:35:10;;;;;;;;;;;1.80;99.90;;;;;;5155507;27;20087;-74
2022/03/21 06:37:36;;;;;;;65.65;35.03;;;1.90;99.90;;;;;;5153665;27;19926;-78
2022/03/21 06:40:02;;;;;;;64.43;34.15;;;1.90;99.90;;;;;;5134207;27;20043;-76
2022/03/21 06:42:27;;;;;;;;;;;2.00;99.90;;;;;;5156016;27;20473;-75
2022/03/21 06:44:53;;;;;;;65.60;32.83;;;2.00;99.90;;;;;;5155706;27;19919;-76
2022/03/21 06:47:19;;;;;;;;;;;2.10;99.90;;;;;;5155562;27;20034;-80
2022/03/21 06:49:46;;;;;;;63.75;31.15;;;2.20;99.90;;;;;;5135614;27;19934;-83
2022/03/21 06:52:12;;;;;;;60.92;33.53;;;2.20;99.90;;;;;;5136063;27;20100;-80
2022/03/21 06:54:38;;;;;;;62.42;34.60;;;2.30;99.90;;;;;;5154759;27;20065;-81
2022/03/21 06:57:05;;;;;;;61.63;33.42;;;2.30;99.90;;;;;;5142939;27;20035;-83
2022/03/21 06:59:42;;;;;;;59.72;31.65;;;3.60;99.90;;;;;;5131160;27;20047;-80
2022/03/21 07:02:07;;;;;;;65.57;35.95;;;2.40;99.90;;;;;;5132992;27;20119;-79
2022/03/21 07:04:33;;;;;;;;;;;2.40;99.90;;;;;;5135812;27;20074;-80
2022/03/21 07:06:58;;;;;;;59.58;33.58;;;2.40;99.90;;;;;;5155170;27;19923;-79
2022/03/21 07:09:25;;;;;;;;;;;2.60;99.90;;;;;;5155165;27;20038;-80
2022/03/21 07:11:52;;;;;;;59.00;31.63;;;2.70;99.90;;;;;;5136911;27;19926;-80
2022/03/21 07:14:18;;;;;;;57.45;32.58;;;2.80;99.90;;;;;;5155084;27;20039;-77
2022/03/21 07:16:44;;;;;;;60.15;32.65;;;2.80;99.90;;;;;;5154694;27;20043;-77
2022/03/21 07:19:09;;;;;;;;;;;2.90;99.90;;;;;;5145345;27;20131;-78
2022/03/21 07:21:35;;;;;;;61.45;33.22;;;3.00;99.90;;;;;;5146314;27;20013;-79
2022/03/21 07:24:00;;;;;;;60.75;33.60;;;3.10;99.90;;;;;;5115879;27;20039;-81
2022/03/21 07:26:26;;;;;;;;;;;3.20;99.90;;;;;;5134493;27;20035;-79
2022/03/21 07:28:51;;;;;;;55.35;30.55;;;3.30;99.90;;;;;;5128926;27;19922;-87
2022/03/21 07:31:17;;;;;;;;;;;3.40;99.90;;;;;;5136812;27;20039;-83
2022/03/21 07:33:43;;;;;;;56.65;32.33;;;5.00;99.90;;;;;;5136453;27;20285;-81
2022/03/21 07:36:09;;;;;;;;;;;3.70;99.90;;;;;;5135656;27;20042;-77
2022/03/21 07:38:35;;;;;;;62.60;33.00;;;3.70;99.90;;;;;;5134906;27;19926;-81
2022/03/21 07:41:01;;;;;;;;;;;3.80;99.90;;;;;;5155099;27;20110;-83
2022/03/21 07:43:26;;;;;;;58.97;31.20;;;3.90;99.90;;;;;;5135793;27;20401;-81
2022/03/21 07:48:36;;;;;;;58.95;33.85;;;5.40;99.90;;;;;;5132552;27;19927;-83
2022/03/21 07:51:05;;;;;;;;;;;6.70;99.90;;;;;;5125665;27;20076;-82
2022/03/21 07:53:31;;;;;;;51.75;31.05;;;7.80;99.90;;;;;;5131647;27;19918;-82
2022/03/21 07:56:00;;;;;;;50.33;29.88;;;8.80;99.90;;;;;;5154304;27;20122;-81
2022/03/21 07:58:27;;;;;;;47.08;31.38;;;9.40;99.90;;;;;;5135071;27;20098;-80
2022/03/21 08:00:52;;;;;;;45.17;28.30;;;10.00;99.90;;;;;;5153987;27;20054;-81
2022/03/21 08:03:18;;;;;;;;;;;10.40;99.90;;;;;;5154765;27;20039;-83
2022/03/21 08:05:44;;;;;;;43.90;26.13;;;10.80;99.90;;;;;;5148635;27;19919;-82
2022/03/21 08:08:09;;;;;;;;;;;11.20;99.90;;;;;;5139284;27;20431;-84
2022/03/21 08:10:35;;;;;;;42.40;28.15;;;11.50;99.90;;;;;;5135754;27;19919;-83
2022/03/21 08:13:01;;;;;;;;;;;11.90;99.90;;;;;;5129237;27;20134;-84
2022/03/21 08:15:27;;;;;;;42.42;28.05;;;12.40;99.90;;;;;;5115200;27;19927;-83
2022/03/21 08:18:03;;;;;;;;;;;13.00;99.90;;;;;;5144606;27;20053;-85
2022/03/21 08:20:43;;;;;;;41.70;26.45;;;13.20;99.90;;;;;;5154247;27;20366;-85
2022/03/21 08:23:18;;;;;;;36.97;24.70;;;13.70;99.90;;;;;;5111724;27;20520;-79
2022/03/21 08:25:59;;;;;;;37.63;26.00;;;14.30;99.90;;;;;;5135039;27;20555;-83
2022/03/21 08:28:31;;;;;;;36.53;25.90;;;16.30;99.90;;;;;;5145652;27;20078;-84
2022/03/21 08:31:22;;;;;;;37.75;27.00;;;15.10;99.90;;;;;;5107929;28;20123;-81
2022/03/21 08:33:47;;;;;;;35.95;23.88;;;15.60;99.90;;;;;;5112654;28;20081;-83
2022/03/21 08:36:19;;;;;;;37.28;24.52;;;15.30;99.40;;;;;;5100706;28;20118;-83
2022/03/21 08:38:45;;;;;;;34.42;24.05;;;15.60;98.60;;;;;;5112781;28;20185;-80
2022/03/21 08:41:11;;;;;;;35.03;24.50;;;15.70;99.90;;;;;;5110517;28;20601;-80
2022/03/21 08:43:37;;;;;;;38.78;24.98;;;16.10;98.30;;;;;;5112443;28;20088;-80
2022/03/21 08:46:02;;;;;;;35.45;24.17;;;16.00;98.20;;;;;;5112870;28;20119;-82
2022/03/21 08:51:12;;;;;;;30.77;23.20;;;16.20;98.10;;;;;;5110453;28;20044;-75
2022/03/21 08:53:38;;;;;;;30.92;23.20;;;16.60;98.90;;;;;;5109931;28;20036;-77
2022/03/21 08:56:04;;;;;;;30.38;22.15;;;16.80;97.80;;;;;;5100904;28;20363;-77
2022/03/21 08:58:30;;;;;;;34.15;22.77;;;17.10;96.60;;;;;;5112573;28;20105;-79
2022/03/21 09:00:56;;;;;;;30.83;22.50;;;17.10;97.30;;;;;;5111640;28;20093;-75
2022/03/21 09:03:21;;;;;;;30.35;21.45;;;17.20;96.10;;;;;;5104745;28;20126;-78
2022/03/21 09:05:47;;;;;;;29.98;20.50;;;17.40;95.70;;;;;;5108304;28;20475;-75
2022/03/21 09:08:12;;;;;;;33.00;21.75;;;17.60;95.20;;;;;;5111351;28;20047;-78
2022/03/21 09:10:38;;;;;;;31.08;20.95;;;17.50;95.00;;;;;;5112200;28;20036;-79
2022/03/21 09:13:05;;;;;;;27.48;20.95;;;17.60;95.00;;;;;;5101080;28;20044;-78
2022/03/21 09:15:31;;;;;;;27.90;19.83;;;17.50;96.40;;;;;;5090391;28;20160;-83
2022/03/21 09:17:58;;;;;;;30.30;20.77;;;17.90;94.10;;;;;;5095988;28;20123;-78
2022/03/21 09:20:24;;;;;;;27.30;19.75;;;17.90;95.40;;;;;;5096177;28;20047;-80
2022/03/21 09:22:49;;;;;;;28.00;19.85;;;18.30;95.80;;;;;;5092884;28;20043;-81
2022/03/21 09:25:19;;;;;;;30.05;19.83;;;18.90;95.00;;;;;;5098749;28;20063;-82
2022/03/21 09:27:45;;;;;;;28.55;20.38;;;19.30;93.60;;;;;;5094512;28;20043;-78
2022/03/21 09:30:11;;;;;;;26.40;20.00;;;19.50;90.20;;;;;;5123031;27;20521;-81
2022/03/21 09:32:37;;;;;;;25.38;18.98;;;19.60;92.10;;;;;;5142717;27;20039;-84
2022/03/21 09:35:05;;;;;;;26.58;18.35;;;19.70;92.80;;;;;;5150616;27;20123;-81
2022/03/21 09:37:39;;;;;;;26.42;19.38;;;20.10;85.50;;;;;;5136444;27;20040;-81
2022/03/21 09:40:06;;;;;;;26.90;19.88;;;20.20;86.40;;;;;;5122956;27;20038;-81
2022/03/21 09:42:34;;;;;;;29.70;19.00;;;20.30;85.40;;;;;;5156229;27;20043;-82
2022/03/21 09:45:00;;;;;;;25.80;19.55;;;20.60;77.60;;;;;;5133496;27;20051;-77
2022/03/21 09:50:12;;;;;;;29.75;19.98;;;20.30;74.70;;;;;;5117031;27;20443;-87
2022/03/21 09:52:38;;;;;;;28.42;20.17;;;20.20;73.20;;;;;;5136510;27;20399;-87
2022/03/21 09:55:08;;;;;;;32.20;22.48;;;19.80;73.90;;;;;;5135540;27;20068;-83
2022/03/21 09:57:35;;;;;;;30.33;20.15;;;19.50;82.00;;;;;;5146328;27;20045;-84
2022/03/21 10:00:01;;;;;;;31.63;21.13;;;20.20;77.00;;;;;;5147711;27;20042;-86
2022/03/21 10:02:27;;;;;;;32.58;22.05;;;20.90;76.70;;;;;;5136308;27;20393;-86
2022/03/21 10:04:53;;;;;;;29.50;21.20;;;21.50;77.80;;;;;;5154311;27;20045;-84
2022/03/21 10:07:27;;;;;;;29.70;19.95;;;21.30;74.00;;;;;;5155714;27;20079;-85
2022/03/21 10:10:08;;;;;;;30.08;19.73;;;22.80;66.80;;;;;;5155927;27;20465;-80
2022/03/21 10:12:34;;;;;;;27.23;18.45;;;22.00;63.10;;;;;;5152775;27;20107;-80
2022/03/21 10:17:25;;;;;;;27.27;17.85;;;21.30;59.80;;;;;;5055599;22;20135;-83
2022/03/21 10:20:01;;;;;;;24.95;17.42;;;21.00;63.10;;;;;;5047745;28;20397;-84
2022/03/21 10:22:32;;;;;;;23.50;15.63;;;21.30;59.30;;;;;;5044790;28;20110;-87
2022/03/21 10:25:16;;;;;;;25.42;17.13;;;21.00;58.30;;;;;;5038077;28;20133;-81
2022/03/21 10:27:44;;;;;;;24.40;17.05;;;21.60;55.60;;;;;;5030566;28;20057;-86
2022/03/21 10:30:22;;;;;;;24.55;16.88;;;22.80;56.70;;;;;;5027235;28;20049;-82
2022/03/21 10:32:52;;;;;;;25.40;18.13;;;19.90;55.90;;;;;;5047366;28;20141;-84
2022/03/21 10:35:24;;;;;;;23.45;16.83;;;21.80;59.20;;;;;;5051649;28;20064;-81
2022/03/21 10:37:56;;;;;;;23.02;16.02;;;22.40;56.80;;;;;;5050552;28;20580;-77
2022/03/21 10:40:30;;;;;;;22.42;16.95;;;23.30;53.60;;;;;;5045786;28;20045;-84
2022/03/21 10:43:12;;;;;;;27.58;18.00;;;22.10;54.50;;;;;;5050197;28;20037;-86
2022/03/21 10:45:54;;;;;;;24.67;16.65;;;22.50;53.50;;;;;;5037507;28;20050;-81
2022/03/21 10:48:24;;;;;;;22.25;15.50;;;22.30;53.20;;;;;;5028851;28;20049;-81
2022/03/21 10:50:55;;;;;;;22.05;14.95;;;22.40;54.60;;;;;;5053859;28;20126;-80
2022/03/21 10:53:25;;;;;;;21.25;15.85;;;21.90;52.90;;;;;;5052940;28;20098;-81
2022/03/21 10:56:10;;;;;;;21.90;14.18;;;21.60;54.60;;;;;;5052879;28;20060;-78
2022/03/21 10:58:43;;;;;;;19.67;14.77;;;21.90;51.20;;;;;;5034738;28;20424;-81
2022/03/21 11:01:25;;;;;;;20.50;15.43;;;22.70;52.20;;;;;;5023928;28;20099;-77
2022/03/21 11:03:56;;;;;;;21.30;15.40;;;22.00;52.20;;;;;;5023765;28;20485;-78
2022/03/21 11:06:23;;;;;;;18.58;14.23;;;22.00;51.90;;;;;;5038827;28;20053;-78
2022/03/21 11:08:52;;;;;;;19.58;14.15;;;21.60;49.50;;;;;;5035646;28;20056;-77
2022/03/21 11:11:18;;;;;;;21.35;15.10;;;21.80;48.40;;;;;;5037702;28;20038;-77
2022/03/21 11:13:53;;;;;;;19.00;12.85;;;22.70;50.00;;;;;;5034541;28;20507;-83
2022/03/21 11:16:19;;;;;;;21.95;13.20;;;22.40;46.20;;;;;;5032670;28;20060;-80
2022/03/21 11:18:47;;;;;;;17.10;13.55;;;22.20;45.70;;;;;;5015827;28;20056;-79
2022/03/21 11:21:13;;;;;;;22.17;14.75;;;22.00;46.80;;;;;;5047671;28;20153;-83
2022/03/21 11:23:42;;;;;;;19.88;14.30;;;23.40;49.20;;;;;;5035495;28;20119;-81
2022/03/21 11:26:32;;;;;;;16.73;13.35;;;23.40;47.90;;;;;;5035118;28;20041;-76
2022/03/21 11:29:36;;;;;;;19.63;13.75;;;22.70;49.50;;;;;;5033119;28;20044;-83
2022/03/21 11:32:31;;;;;;;17.98;13.65;;;23.10;48.60;;;;;;5011881;28;20052;-79
2022/03/21 11:35:12;;;;;;;19.08;14.10;;;22.70;48.00;;;;;;5043782;28;20071;-86
2022/03/21 11:37:40;;;;;;;17.58;11.80;;;22.70;48.20;;;;;;5042224;28;20038;-82
2022/03/21 11:40:35;;;;;;;17.30;12.43;;;22.40;47.60;;;;;;5042171;28;20053;-78
2022/03/21 11:43:16;;;;;;;18.05;12.32;;;22.40;46.80;;;;;;5043657;28;20117;-78
2022/03/21 11:46:18;;;;;;;17.67;12.57;;;22.80;47.30;;;;;;5028474;28;20049;-82
2022/03/21 11:48:43;;;;;;;18.83;12.35;;;22.00;45.60;;;;;;5025209;28;20158;-82
2022/03/21 11:51:18;;;;;;;17.65;12.77;;;23.30;46.60;;;;;;5029377;28;20400;-79
2022/03/21 11:53:46;;;;;;;17.20;11.48;;;22.60;44.40;;;;;;5034741;28;20429;-77
2022/03/21 11:56:41;;;;;;;18.92;12.90;;;22.30;46.10;;;;;;5037539;28;20057;-78
2022/03/21 11:59:07;;;;;;;15.75;10.88;;;22.60;43.00;;;;;;5001219;28;20404;-81
2022/03/21 12:01:34;;;;;;;19.50;12.55;;;22.90;45.00;;;;;;5046224;28;20052;-76
2022/03/21 12:04:24;;;;;;;14.57;11.00;;;24.40;45.40;;;;;;5026111;28;20060;-77
2022/03/21 12:06:56;;;;;;;15.23;11.45;;;23.30;44.20;;;;;;5021390;28;20045;-79
2022/03/21 12:09:22;;;;;;;17.45;12.20;;;24.00;42.20;;;;;;5044749;28;20049;-78
2022/03/21 12:11:48;;;;;;;16.60;12.15;;;24.70;42.80;;;;;;5045135;28;20049;-82
2022/03/21 12:14:36;;;;;;;17.33;12.43;;;23.50;41.80;;;;;;5040524;28;20045;-79
2022/03/21 12:17:01;;;;;;;16.38;12.23;;;23.40;43.20;;;;;;5040529;28;20067;-86
2022/03/21 12:19:48;;;;;;;17.05;11.73;;;23.30;43.50;;;;;;5039999;28;20112;-84
2022/03/21 12:22:43;;;;;;;19.83;12.27;;;22.80;44.10;;;;;;5020858;28;20050;-81
2022/03/21 12:25:29;;;;;;;16.60;12.50;;;23.00;43.50;;;;;;5041471;28;20117;-80
2022/03/21 12:27:59;;;;;;;15.45;11.35;;;23.60;43.90;;;;;;5025699;28;20098;-84
2022/03/21 12:30:29;;;;;;;15.85;11.73;;;24.70;42.70;;;;;;5044954;28;20381;-84
2022/03/21 12:32:59;;;;;;;16.92;11.55;;;23.80;43.50;;;;;;5040938;28;20049;-81
2022/03/21 12:35:31;;;;;;;16.08;10.52;;;23.10;41.50;;;;;;5027758;28;20053;-78
2022/03/21 12:38:03;;;;;;;13.90;10.52;;;23.00;41.60;;;;;;5046726;28;20040;-81
2022/03/21 12:40:50;;;;;;;11.95;9.23;;;23.50;40.90;;;;;;5041070;28;20148;-84
2022/03/21 12:43:37;;;;;;;11.90;9.13;;;24.60;43.30;;;;;;5024324;28;20403;-79
2022/03/21 12:46:07;;;;;;;13.20;8.90;;;24.20;39.80;;;;;;5013934;28;20049;-83
2022/03/21 12:48:43;;;;;;;12.98;8.80;;;24.80;40.00;;;;;;5026219;28;20059;-82
2022/03/21 12:51:15;;;;;;;12.65;9.10;;;23.80;38.40;;;;;;5051320;28;20051;-80
2022/03/21 12:53:47;;;;;;;14.00;10.23;;;24.70;38.30;;;;;;5046268;28;20129;-81
2022/03/21 12:56:17;;;;;;;13.43;9.50;;;23.00;40.60;;;;;;5038885;28;20096;-82
2022/03/21 12:59:03;;;;;;;12.85;9.60;;;23.10;40.40;;;;;;5040840;28;20553;-78
2022/03/21 13:01:30;;;;;;;14.13;9.45;;;23.00;38.90;;;;;;5034053;28;21401;-81
2022/03/21 13:12:36;;;;;;;11.90;9.00;;;20.90;41.30;;;;;;5030946;28;20140;-76
2022/03/21 13:15:07;;;;;;;18.30;10.45;;;20.80;41.30;;;;;;5044889;28;20511;-75
2022/03/21 13:17:47;;;;;;;15.82;9.25;;;20.00;41.70;;;;;;5043598;28;20037;-75
2022/03/21 13:20:19;;;;;;;14.20;9.90;;;20.10;42.10;;;;;;5047159;28;20040;-74
2022/03/21 13:22:45;;;;;;;12.63;9.25;;;19.50;41.30;;;;;;5045792;28;20423;-77
2022/03/21 13:25:35;;;;;;;13.43;8.85;;;19.00;42.60;;;;;;5043495;28;20053;-77
2022/03/21 13:28:08;;;;;;;14.45;9.55;;;18.70;43.90;;;;;;5011382;28;20507;-81
2022/03/21 13:30:35;;;;;;;13.65;8.75;;;18.50;44.10;;;;;;5050289;28;20042;-78
2022/03/21 13:33:00;;;;;;;14.77;9.63;;;18.60;43.90;;;;;;5031512;28;20049;-78
2022/03/21 13:35:26;;;;;;;12.25;8.13;;;18.90;44.40;;;;;;5040229;28;20052;-78